createdAt,value
2018-10-18T00:01:31.335Z,55.00
2018-10-18T00:04:00.020Z,55.03
2018-10-18T00:06:28.620Z,55.07
2018-10-18T00:08:57.303Z,54.41
2018-10-18T00:11:25.892Z,55.09
2018-10-18T00:13:54.499Z,54.44
2018-10-18T00:16:23.208Z,54.92
2018-10-18T00:18:51.812Z,54.77
2018-10-18T00:21:20.420Z,54.29
2018-10-18T00:23:49.712Z,54.38
2018-10-18T00:26:18.336Z,54.67
2018-10-18T00:28:46.929Z,54.94
2018-10-18T00:31:15.649Z,55.31
2018-10-18T00:33:44.245Z,54.55
2018-10-18T00:36:12.923Z,55.16
2018-10-18T00:38:41.668Z,55.45
2018-10-18T00:41:10.267Z,55.85
2018-10-18T00:43:38.867Z,55.36
2018-10-18T00:46:07.488Z,56.16
2018-10-18T00:48:36.103Z,56.33
2018-10-18T00:51:04.718Z,56.36
2018-10-18T00:53:33.574Z,56.26
2018-10-18T00:56:02.299Z,56.54
2018-10-18T00:58:30.789Z,56.60
2018-10-18T01:00:59.823Z,56.71
2018-10-18T01:03:28.448Z,56.59
2018-10-18T01:05:57.065Z,57.14
2018-10-18T01:08:25.651Z,56.88
2018-10-18T01:10:54.282Z,56.82
2018-10-18T01:13:22.859Z,57.52
2018-10-18T01:15:51.800Z,57.33
2018-10-18T01:18:20.437Z,56.97
2018-10-18T01:20:49.052Z,56.98
2018-10-18T01:23:17.681Z,57.30
2018-10-18T01:25:46.299Z,57.06
2018-10-18T01:28:14.895Z,57.48
2018-10-18T01:30:43.642Z,56.83
2018-10-18T01:33:12.224Z,57.11
2018-10-18T01:35:40.832Z,57.64
2018-10-18T01:38:09.557Z,57.13
2018-10-18T01:40:38.232Z,57.38
2018-10-18T01:43:06.884Z,57.37
2018-10-18T01:45:35.840Z,57.44
2018-10-18T01:48:04.506Z,56.83
2018-10-18T01:50:33.039Z,56.89
2018-10-18T01:53:01.761Z,57.01
2018-10-18T01:55:30.366Z,56.98
2018-10-18T01:57:59.001Z,57.13
2018-10-18T02:00:27.711Z,57.02
2018-10-18T02:02:56.344Z,57.32
2018-10-18T02:05:24.939Z,57.44
2018-10-18T02:07:53.621Z,57.39
2018-10-18T02:10:22.179Z,57.70
2018-10-18T02:12:50.779Z,58.18
2018-10-18T02:15:19.427Z,58.21
2018-10-18T02:17:48.048Z,58.09
2018-10-18T02:20:16.649Z,58.61
2018-10-18T02:22:45.277Z,58.23
2018-10-18T02:25:13.942Z,58.52
2018-10-18T02:27:42.471Z,58.40
2018-10-18T02:30:10.728Z,58.56
2018-10-18T02:32:39.291Z,58.49
2018-10-18T02:35:07.939Z,58.61
2018-10-18T02:37:36.601Z,58.67
2018-10-18T02:40:05.312Z,59.06
2018-10-18T02:42:34.061Z,59.38
2018-10-18T02:45:02.775Z,59.04
2018-10-18T02:47:31.408Z,59.16
2018-10-18T02:50:00.029Z,59.05
2018-10-18T02:52:28.696Z,59.00
2018-10-18T02:54:57.276Z,58.68
2018-10-18T02:57:25.890Z,59.00
2018-10-18T02:59:54.613Z,59.25
2018-10-18T03:02:23.252Z,59.40
2018-10-18T03:04:51.835Z,59.33
2018-10-18T03:07:20.548Z,59.04
2018-10-18T03:09:49.185Z,58.71
2018-10-18T03:12:17.840Z,59.13
2018-10-18T03:14:46.420Z,59.39
2018-10-18T03:17:15.009Z,59.26
2018-10-18T03:19:43.616Z,59.31
2018-10-18T03:22:12.311Z,59.10
2018-10-18T03:24:40.887Z,59.04
2018-10-18T03:27:09.528Z,59.70
2018-10-18T03:29:38.227Z,59.74
2018-10-18T03:32:06.845Z,59.80
2018-10-18T03:34:35.458Z,59.73
2018-10-18T03:37:04.331Z,59.92
2018-10-18T03:39:32.932Z,59.82
2018-10-18T03:42:01.576Z,59.06
2018-10-18T03:44:30.308Z,59.39
2018-10-18T03:46:58.903Z,59.02
2018-10-18T03:49:27.455Z,59.31
2018-10-18T03:51:56.080Z,59.54
2018-10-18T03:54:24.704Z,59.66
2018-10-18T03:56:53.288Z,59.67
2018-10-18T03:59:22.041Z,59.68
2018-10-18T04:01:50.663Z,59.78
2018-10-18T04:04:19.392Z,59.91
2018-10-18T04:06:48.465Z,59.82
2018-10-18T04:09:17.039Z,59.73
2018-10-18T04:11:45.664Z,59.41
2018-10-18T04:14:14.367Z,59.97
2018-10-18T04:16:42.945Z,59.68
2018-10-18T04:19:11.530Z,59.68
2018-10-18T04:21:40.323Z,59.72
2018-10-18T04:24:08.981Z,59.97
2018-10-18T04:26:37.540Z,59.80
2018-10-18T04:29:06.173Z,60.11
2018-10-18T04:31:34.748Z,60.15
2018-10-18T04:34:03.324Z,60.42
2018-10-18T04:36:32.092Z,60.61
2018-10-18T04:39:00.716Z,60.48
2018-10-18T04:41:29.620Z,60.49
2018-10-18T04:43:58.231Z,60.67
2018-10-18T04:46:27.310Z,60.18
2018-10-18T04:48:56.016Z,60.80
2018-10-18T04:51:24.580Z,60.58
2018-10-18T04:53:53.144Z,60.58
2018-10-18T04:56:21.713Z,60.50
2018-10-18T04:58:50.336Z,60.77
2018-10-18T05:01:19.707Z,60.82
2018-10-18T05:03:48.267Z,60.84
2018-10-18T05:06:17.287Z,60.66
2018-10-18T05:08:45.868Z,60.65
2018-10-18T05:11:14.507Z,60.56
2018-10-18T05:13:43.121Z,60.54
2018-10-18T05:16:11.690Z,60.28
2018-10-18T05:18:40.263Z,60.72
2018-10-18T05:21:08.871Z,60.72
2018-10-18T05:23:37.816Z,60.82
2018-10-18T05:26:07.541Z,60.88
2018-10-18T05:28:36.179Z,60.44
2018-10-18T05:31:04.924Z,60.76
2018-10-18T05:33:33.472Z,60.52
2018-10-18T05:36:02.256Z,60.41
2018-10-18T05:38:30.835Z,60.78
2018-10-18T05:40:59.413Z,60.82
2018-10-18T05:43:28.100Z,60.90
2018-10-18T05:45:57.007Z,60.75
2018-10-18T05:48:25.590Z,61.20
2018-10-18T05:50:54.184Z,60.81
2018-10-18T05:53:22.769Z,61.08
2018-10-18T05:55:51.356Z,61.29
2018-10-18T05:58:19.947Z,61.33
2018-10-18T06:00:48.540Z,61.02
2018-10-18T06:03:17.109Z,61.03
2018-10-18T06:05:45.772Z,61.06
2018-10-18T06:08:14.347Z,60.74
2018-10-18T06:10:54.094Z,61.05
2018-10-18T06:13:22.656Z,60.83
2018-10-18T06:15:51.224Z,60.78
2018-10-18T06:18:19.815Z,60.44
2018-10-18T06:20:48.396Z,60.78
2018-10-18T06:23:17.073Z,60.46
2018-10-18T06:25:45.693Z,60.60
2018-10-18T06:28:14.271Z,60.17
2018-10-18T06:30:42.831Z,60.34
2018-10-18T06:33:11.519Z,60.44
2018-10-18T06:35:40.070Z,60.39
2018-10-18T06:38:08.650Z,60.13
2018-10-18T06:40:37.263Z,59.91
2018-10-18T06:43:05.900Z,60.10
2018-10-18T06:45:34.482Z,60.00
2018-10-18T06:48:03.270Z,60.01
2018-10-18T06:50:31.800Z,60.02
2018-10-18T06:53:00.368Z,59.62
2018-10-18T06:55:29.004Z,59.69
2018-10-18T06:57:57.563Z,59.23
2018-10-18T07:00:26.225Z,59.18
2018-10-18T07:02:54.883Z,59.09
2018-10-18T07:05:25.512Z,59.26
2018-10-18T07:07:54.108Z,59.11
2018-10-18T07:10:22.709Z,59.05
2018-10-18T07:12:51.285Z,59.03
2018-10-18T07:15:19.909Z,58.55
2018-10-18T07:17:48.577Z,58.59
2018-10-18T07:20:17.119Z,58.29
2018-10-18T07:22:47.988Z,57.94
2018-10-18T07:25:16.963Z,57.60
2018-10-18T07:27:45.416Z,57.50
2018-10-18T07:30:15.116Z,57.47
2018-10-18T07:32:43.702Z,57.11
2018-10-18T07:35:13.472Z,57.31
2018-10-18T07:37:42.344Z,57.35
2018-10-18T07:40:13.695Z,56.89
2018-10-18T07:42:42.316Z,56.65
2018-10-18T07:45:11.916Z,56.26
2018-10-18T07:47:40.891Z,56.25
2018-10-18T07:50:10.091Z,55.96
2018-10-18T07:52:38.671Z,55.85
2018-10-18T07:55:08.215Z,55.71
2018-10-18T07:57:36.837Z,55.72
2018-10-18T08:00:07.481Z,54.61
2018-10-18T08:02:36.091Z,54.88
2018-10-18T08:05:05.941Z,54.34
2018-10-18T08:07:34.582Z,54.56
2018-10-18T08:10:03.692Z,54.58
2018-10-18T08:12:32.627Z,54.20
2018-10-18T08:15:01.175Z,54.00
2018-10-18T08:17:29.899Z,52.93
2018-10-18T08:19:58.465Z,53.29
2018-10-18T08:22:27.111Z,53.47
2018-10-18T08:24:55.791Z,52.71
2018-10-18T08:27:24.348Z,53.11
2018-10-18T08:29:52.920Z,52.75
2018-10-18T08:32:21.615Z,52.60
2018-10-18T08:34:50.179Z,52.50
2018-10-18T08:37:18.830Z,51.99
2018-10-18T08:39:47.534Z,52.12
2018-10-18T08:42:16.108Z,51.43
2018-10-18T08:44:44.669Z,51.39
2018-10-18T08:47:13.380Z,51.20
2018-10-18T08:49:41.986Z,50.67
2018-10-18T08:52:10.548Z,50.13
2018-10-18T08:54:39.215Z,49.11
2018-10-18T08:57:07.784Z,48.15
2018-10-18T08:59:36.347Z,47.88
2018-10-18T09:02:05.320Z,47.24
2018-10-18T09:04:33.919Z,46.01
2018-10-18T09:07:02.523Z,45.62
2018-10-18T09:09:31.238Z,45.02
2018-10-18T09:11:59.814Z,45.32
2018-10-18T09:14:28.828Z,44.81
2018-10-18T09:16:57.906Z,43.91
2018-10-18T09:19:26.491Z,43.71
2018-10-18T09:21:55.079Z,43.77
2018-10-18T09:24:23.808Z,44.02
2018-10-18T09:26:52.427Z,44.82
2018-10-18T09:29:20.979Z,45.02
2018-10-18T09:31:49.588Z,44.40
2018-10-18T09:34:18.172Z,44.19
2018-10-18T09:36:46.755Z,43.99
2018-10-18T09:39:15.391Z,44.19
2018-10-18T09:41:43.998Z,44.14
2018-10-18T09:44:12.600Z,43.61
2018-10-18T09:46:41.216Z,42.93
2018-10-18T09:49:09.798Z,42.14
2018-10-18T09:51:38.352Z,42.01
2018-10-18T09:54:07.069Z,41.98
2018-10-18T09:56:35.643Z,41.24
2018-10-18T09:59:04.233Z,41.22
2018-10-18T10:01:38.212Z,40.85
2018-10-18T10:04:06.858Z,39.19
2018-10-18T10:06:35.426Z,38.85
2018-10-18T10:09:04.312Z,38.90
2018-10-18T10:11:32.909Z,38.40
2018-10-18T10:14:01.440Z,39.12
2018-10-18T10:16:30.103Z,38.71
2018-10-18T10:18:58.677Z,37.81
2018-10-18T10:21:27.272Z,38.35
2018-10-18T10:23:55.900Z,38.25
2018-10-18T10:26:24.491Z,37.96
2018-10-18T10:28:53.079Z,38.74
2018-10-18T10:31:21.760Z,38.29
2018-10-18T10:33:50.327Z,38.84
2018-10-18T10:36:18.899Z,38.61
2018-10-18T10:38:47.576Z,38.38
2018-10-18T10:41:16.237Z,38.77
2018-10-18T10:43:45.123Z,37.92
2018-10-18T10:46:13.880Z,38.77
2018-10-18T10:48:42.420Z,38.51
2018-10-18T10:51:11.002Z,39.84
2018-10-18T10:53:39.687Z,39.41
2018-10-18T10:56:08.787Z,39.17
2018-10-18T10:58:37.271Z,39.35
2018-10-18T11:01:14.191Z,39.56
2018-10-18T11:03:43.364Z,39.05
2018-10-18T11:06:12.386Z,37.35
2018-10-18T11:08:40.994Z,36.70
2018-10-18T11:11:10.121Z,35.82
2018-10-18T11:13:38.715Z,34.03
2018-10-18T11:16:07.791Z,32.00
2018-10-18T11:18:37.461Z,29.34
2018-10-18T11:21:07.439Z,27.46
2018-10-18T11:23:36.359Z,25.61
2018-10-18T11:26:05.184Z,24.63
2018-10-18T11:28:34.192Z,23.86
2018-10-18T11:31:02.804Z,22.67
2018-10-18T11:33:31.426Z,22.11
2018-10-18T11:36:00.146Z,21.01
2018-10-18T11:38:28.718Z,20.78
2018-10-18T11:40:57.311Z,20.27
2018-10-18T11:43:25.952Z,20.32
2018-10-18T11:45:54.543Z,19.40
2018-10-18T11:48:23.115Z,20.43
2018-10-18T11:50:51.802Z,20.97
2018-10-18T11:53:20.383Z,22.83
2018-10-18T11:55:48.952Z,24.22
2018-10-18T11:58:17.663Z,25.85
2018-10-18T12:00:46.259Z,27.73
2018-10-18T12:03:15.400Z,28.75
2018-10-18T12:05:44.043Z,30.11
2018-10-18T12:08:12.710Z,31.69
2018-10-18T12:10:41.261Z,32.29
2018-10-18T12:13:09.896Z,32.82
2018-10-18T12:15:38.468Z,33.50
2018-10-18T12:18:07.058Z,34.61
2018-10-18T12:20:35.692Z,34.11
2018-10-18T12:23:04.351Z,34.59
2018-10-18T12:25:32.899Z,34.66
2018-10-18T12:28:01.472Z,34.85
2018-10-18T12:30:30.038Z,35.08
2018-10-18T12:32:58.608Z,35.30
2018-10-18T12:35:27.256Z,36.36
2018-10-18T12:37:55.917Z,36.08
2018-10-18T12:40:24.636Z,36.13
2018-10-18T12:42:53.207Z,36.21
2018-10-18T12:45:21.779Z,36.33
2018-10-18T12:47:50.361Z,37.71
2018-10-18T12:50:19.373Z,36.97
2018-10-18T12:52:47.940Z,37.00
2018-10-18T12:55:16.527Z,37.56
2018-10-18T12:57:45.128Z,37.36
2018-10-18T13:00:13.794Z,37.27
2018-10-18T13:02:42.318Z,37.28
2018-10-18T13:05:11.631Z,36.71
2018-10-18T13:07:40.356Z,37.31
2018-10-18T13:10:11.116Z,37.33
2018-10-18T13:12:39.939Z,37.50
2018-10-18T13:15:10.199Z,37.47
2018-10-18T13:17:39.113Z,37.64
2018-10-18T13:20:08.893Z,37.31
2018-10-18T13:22:37.513Z,37.61
2018-10-18T13:25:08.236Z,36.84
2018-10-18T13:27:37.255Z,36.95
2018-10-18T13:30:07.771Z,36.95
2018-10-18T13:32:36.297Z,37.46
2018-10-18T13:35:05.256Z,37.00
2018-10-18T13:37:33.947Z,37.00
2018-10-18T13:40:03.395Z,37.42
2018-10-18T13:42:31.969Z,38.28
2018-10-18T13:45:00.684Z,38.71
2018-10-18T13:47:29.271Z,38.79
2018-10-18T13:49:57.861Z,38.49
2018-10-18T13:52:26.495Z,38.06
2018-10-18T13:54:55.071Z,37.90
2018-10-18T13:57:23.724Z,37.42
2018-10-18T14:00:03.632Z,38.81
2018-10-18T14:02:32.190Z,38.44
2018-10-18T14:05:00.784Z,38.35
2018-10-18T14:07:29.496Z,38.54
2018-10-18T14:09:58.092Z,37.98
2018-10-18T14:12:26.680Z,38.66
2018-10-18T14:14:55.516Z,38.58
2018-10-18T14:17:24.256Z,38.67
2018-10-18T14:19:52.743Z,38.49
2018-10-18T14:22:21.383Z,37.68
2018-10-18T14:24:50.047Z,38.53
2018-10-18T14:27:18.611Z,38.23
2018-10-18T14:29:47.215Z,38.42
2018-10-18T14:32:15.819Z,38.10
2018-10-18T14:34:44.387Z,37.93
2018-10-18T14:37:13.031Z,38.94
2018-10-18T14:39:41.600Z,38.84
2018-10-18T14:42:10.184Z,38.49
2018-10-18T14:44:39.124Z,38.46
2018-10-18T14:47:07.543Z,38.54
2018-10-18T14:49:36.089Z,38.70
2018-10-18T14:52:04.828Z,38.97
2018-10-18T14:54:33.431Z,39.15
2018-10-18T14:57:02.064Z,39.11
2018-10-18T14:59:30.815Z,39.39
2018-10-18T15:01:59.527Z,39.08
2018-10-18T15:04:28.180Z,39.53
2018-10-18T15:06:57.024Z,40.01
2018-10-18T15:09:25.726Z,39.45
2018-10-18T15:11:54.371Z,40.33
2018-10-18T15:14:23.048Z,40.45
2018-10-18T15:16:51.645Z,40.59
2018-10-18T15:19:20.263Z,41.34
2018-10-18T15:21:48.896Z,41.16
2018-10-18T15:24:17.820Z,41.96
2018-10-18T15:26:46.534Z,41.13
2018-10-18T15:29:15.111Z,41.52
2018-10-18T15:31:43.633Z,40.60
2018-10-18T15:34:12.251Z,40.83
2018-10-18T15:36:40.983Z,41.30
2018-10-18T15:39:10.576Z,40.61
2018-10-18T15:41:40.085Z,40.59
2018-10-18T15:44:09.196Z,40.81
2018-10-18T15:46:38.320Z,41.04
2018-10-18T15:49:07.796Z,40.88
2018-10-18T15:51:36.935Z,41.72
2018-10-18T15:54:06.511Z,41.96
2018-10-18T15:56:35.527Z,41.94
2018-10-18T15:59:04.199Z,41.31
2018-10-18T16:01:32.756Z,41.46
2018-10-18T16:04:01.882Z,41.90
2018-10-18T16:06:30.572Z,42.02
2018-10-18T16:08:59.257Z,41.85
2018-10-18T16:11:28.037Z,42.25
2018-10-18T16:13:56.560Z,42.56
2018-10-18T16:16:25.655Z,42.44
2018-10-18T16:18:54.832Z,43.09
2018-10-18T16:21:23.979Z,42.24
2018-10-18T16:23:52.595Z,42.24
2018-10-18T16:26:21.699Z,43.14
2018-10-18T16:28:50.254Z,42.87
2018-10-18T16:31:18.867Z,42.79
2018-10-18T16:33:47.587Z,42.81
2018-10-18T16:36:16.202Z,43.79
2018-10-18T16:38:44.784Z,43.28
2018-10-18T16:41:14.585Z,43.32
2018-10-18T16:43:42.958Z,43.35
2018-10-18T16:46:11.566Z,43.48
2018-10-18T16:48:40.245Z,44.17
2018-10-18T16:51:09.124Z,44.05
2018-10-18T16:53:37.703Z,44.39
2018-10-18T16:56:06.451Z,44.38
2018-10-18T16:58:35.027Z,44.94
2018-10-18T17:01:03.661Z,45.11
2018-10-18T17:03:32.349Z,44.65
2018-10-18T17:06:01.015Z,44.99
2018-10-18T17:08:29.605Z,45.01
2018-10-18T17:10:58.259Z,45.31
2018-10-18T17:13:26.852Z,45.47
2018-10-18T17:15:55.439Z,45.47
2018-10-18T17:18:24.240Z,45.52
2018-10-18T17:20:54.864Z,45.07
2018-10-18T17:23:23.871Z,45.03
2018-10-18T17:25:52.623Z,45.38
2018-10-18T17:28:22.154Z,45.44
2018-10-18T17:30:51.611Z,45.82
2018-10-18T17:33:20.827Z,45.90
2018-10-18T17:35:50.225Z,46.18
2018-10-18T17:38:19.982Z,46.16
2018-10-18T17:40:49.691Z,45.99
2018-10-18T17:43:18.868Z,45.93
2018-10-18T17:45:49.214Z,46.15
2018-10-18T17:48:18.866Z,46.25
2018-10-18T17:50:49.248Z,46.50
2018-10-18T17:53:18.388Z,46.53
2018-10-18T17:55:47.495Z,46.47
2018-10-18T17:58:17.402Z,46.47
2018-10-18T18:00:46.572Z,46.56
2018-10-18T18:03:16.368Z,46.87
2018-10-18T18:05:46.004Z,46.91
2018-10-18T18:08:15.658Z,47.36
2018-10-18T18:10:44.567Z,47.22
2018-10-18T18:13:14.133Z,47.41
2018-10-18T18:15:45.072Z,47.75
2018-10-18T18:18:13.743Z,47.84
2018-10-18T18:20:42.464Z,47.93
2018-10-18T18:23:11.958Z,47.68
2018-10-18T18:25:40.762Z,47.63
2018-10-18T18:28:09.492Z,47.94
2018-10-18T18:30:38.491Z,47.85
2018-10-18T18:33:07.131Z,48.29
2018-10-18T18:35:35.775Z,48.17
2018-10-18T18:38:04.720Z,48.43
2018-10-18T18:40:33.912Z,48.64
2018-10-18T18:43:02.843Z,48.76
2018-10-18T18:45:33.845Z,48.92
2018-10-18T18:48:03.479Z,48.87
2018-10-18T18:50:32.716Z,49.36
2018-10-18T18:53:02.389Z,49.46
2018-10-18T18:55:31.619Z,49.23
2018-10-18T18:58:00.298Z,49.57
2018-10-18T19:00:29.572Z,49.66
2018-10-18T19:02:58.743Z,49.31
2018-10-18T19:05:27.299Z,50.38
2018-10-18T19:07:55.943Z,50.14
2018-10-18T19:10:24.639Z,50.34
2018-10-18T19:12:53.223Z,50.16
2018-10-18T19:15:21.935Z,49.91
2018-10-18T19:17:50.536Z,50.68
2018-10-18T19:20:19.128Z,50.47
2018-10-18T19:22:47.857Z,50.74
2018-10-18T19:25:16.390Z,50.78
2018-10-18T19:27:45.080Z,51.08
2018-10-18T19:30:13.706Z,50.76
2018-10-18T19:32:42.347Z,50.93
2018-10-18T19:35:10.929Z,51.21
2018-10-18T19:37:39.560Z,51.18
2018-10-18T19:40:08.897Z,51.46
2018-10-18T19:42:37.596Z,51.60
2018-10-18T19:45:07.884Z,52.01
2018-10-18T19:47:44.956Z,51.49
2018-10-18T19:50:13.622Z,51.99
2018-10-18T19:52:42.283Z,52.31
2018-10-18T19:55:11.248Z,52.06
2018-10-18T19:57:39.860Z,51.95
2018-10-18T20:00:09.402Z,51.90
2018-10-18T20:02:38.322Z,52.28
2018-10-18T20:05:07.729Z,52.12
2018-10-18T20:07:36.403Z,52.39
2018-10-18T20:10:05.536Z,52.48
2018-10-18T20:12:34.359Z,52.57
2018-10-18T20:15:03.624Z,52.61
2018-10-18T20:17:32.436Z,52.58
2018-10-18T20:20:01.271Z,53.04
2018-10-18T20:22:30.231Z,52.93
2018-10-18T20:24:58.976Z,53.11
2018-10-18T20:27:27.501Z,53.32
2018-10-18T20:29:56.151Z,53.24
2018-10-18T20:32:24.776Z,53.42
2018-10-18T20:34:53.388Z,53.61
2018-10-18T20:37:22.010Z,53.81
2018-10-18T20:39:50.852Z,54.00
2018-10-18T20:42:19.445Z,54.23
2018-10-18T20:44:48.076Z,54.21
2018-10-18T20:47:16.772Z,54.44
2018-10-18T20:49:46.420Z,54.39
2018-10-18T20:52:14.999Z,54.42
2018-10-18T20:54:43.646Z,54.48
2018-10-18T20:57:12.364Z,54.83
2018-10-18T20:59:40.857Z,54.81
2018-10-18T21:02:09.437Z,54.89
2018-10-18T21:04:38.043Z,54.87
2018-10-18T21:07:07.300Z,55.36
2018-10-18T21:09:35.882Z,55.40
2018-10-18T21:12:05.154Z,55.69
2018-10-18T21:14:33.757Z,55.69
2018-10-18T21:17:02.608Z,55.60
2018-10-18T21:19:31.729Z,55.79
2018-10-18T21:22:00.431Z,55.83
2018-10-18T21:24:29.181Z,55.87
2018-10-18T21:26:57.817Z,56.01
2018-10-18T21:29:26.433Z,55.91
2018-10-18T21:31:55.219Z,56.11
2018-10-18T21:34:23.900Z,56.01
2018-10-18T21:36:52.511Z,56.09
2018-10-18T21:39:27.277Z,56.25
2018-10-18T21:41:55.903Z,56.34
2018-10-18T21:44:28.803Z,56.42
2018-10-18T21:46:57.626Z,56.59
2018-10-18T21:49:26.898Z,56.69
2018-10-18T21:51:55.583Z,56.75
2018-10-18T21:54:24.448Z,56.84
2018-10-18T21:56:53.089Z,56.91
2018-10-18T21:59:21.800Z,56.86
2018-10-18T22:01:50.437Z,57.18
2018-10-18T22:04:19.016Z,57.35
2018-10-18T22:06:48.466Z,57.22
2018-10-18T22:09:17.788Z,57.11
2018-10-18T22:11:47.041Z,57.21
2018-10-18T22:14:15.777Z,57.19
2018-10-18T22:16:44.355Z,57.43
2018-10-18T22:19:12.924Z,57.08
2018-10-18T22:21:41.561Z,57.38
2018-10-18T22:24:11.293Z,57.56
2018-10-18T22:26:39.947Z,57.94
2018-10-18T22:29:08.859Z,57.96
2018-10-18T22:31:37.881Z,58.06
2018-10-18T22:34:06.624Z,58.15
2018-10-18T22:36:35.344Z,58.28
2018-10-18T22:39:05.073Z,58.42
2018-10-18T22:41:33.643Z,58.41
2018-10-18T22:44:02.248Z,58.54
2018-10-18T22:46:30.848Z,58.34
2018-10-18T22:48:59.479Z,58.30
2018-10-18T22:51:28.121Z,58.06
2018-10-18T22:53:58.455Z,58.35
2018-10-18T22:56:28.021Z,58.82
2018-10-18T22:58:56.638Z,58.63
2018-10-18T23:01:25.256Z,58.78
2018-10-18T23:03:54.448Z,58.27
2018-10-18T23:06:23.059Z,58.76
2018-10-18T23:08:51.866Z,58.73
2018-10-18T23:11:20.652Z,59.17
2018-10-18T23:13:49.443Z,58.76
2018-10-18T23:16:18.100Z,58.82
2018-10-18T23:18:47.095Z,59.37
2018-10-18T23:21:15.880Z,59.37
2018-10-18T23:23:44.843Z,59.08
2018-10-18T23:26:13.587Z,59.07
2018-10-18T23:28:42.173Z,59.35
2018-10-18T23:31:10.777Z,59.48
2018-10-18T23:33:39.728Z,59.13
2018-10-18T23:36:08.350Z,59.19
2018-10-18T23:38:36.974Z,59.67
2018-10-18T23:41:06.337Z,60.66
2018-10-18T23:43:35.339Z,61.07
2018-10-18T23:46:03.935Z,61.93
2018-10-18T23:48:32.543Z,62.13
2018-10-18T23:51:01.133Z,61.67
2018-10-18T23:53:29.705Z,62.12
2018-10-18T23:55:58.400Z,61.65
2018-10-18T23:58:26.971Z,61.45
